sensor_id;sensor_type;location;lat;lon;timestamp;temperature;humidity
29725;DHT22;16636;48.394;15.468;2023-04-03T00:00:40;6.50;99.90
29725;DHT22;16636;48.394;15.468;2023-04-03T00:03:06;6.50;99.90
29725;DHT22;16636;48.394;15.468;2023-04-03T00:05:32;6.50;99.90
29725;DHT22;16636;48.394;15.468;2023-04-03T00:07:58;6.50;99.90
29725;DHT22;16636;48.394;15.468;2023-04-03T00:10:24;6.40;99.90
29725;DHT22;16636;48.394;15.468;2023-04-03T00:12:50;6.40;99.90
29725;DHT22;16636;48.394;15.468;2023-04-03T00:15:16;6.40;99.90
29725;DHT22;16636;48.394;15.468;2023-04-03T00:17:42;6.40;99.90
29725;DHT22;16636;48.394;15.468;2023-04-03T00:20:08;6.40;99.90
29725;DHT22;16636;48.394;15.468;2023-04-03T00:22:34;6.40;99.90
29725;DHT22;16636;48.394;15.468;2023-04-03T00:24:59;6.40;99.90
29725;DHT22;16636;48.394;15.468;2023-04-03T00:27:25;6.40;99.90
29725;DHT22;16636;48.394;15.468;2023-04-03T00:29:51;6.40;99.90
29725;DHT22;16636;48.394;15.468;2023-04-03T00:32:17;6.50;99.90
29725;DHT22;16636;48.394;15.468;2023-04-03T00:34:43;6.40;99.90
29725;DHT22;16636;48.394;15.468;2023-04-03T00:37:09;6.40;99.90
29725;DHT22;16636;48.394;15.468;2023-04-03T00:39:35;6.40;99.90
29725;DHT22;16636;48.394;15.468;2023-04-03T00:42:01;6.40;99.90
29725;DHT22;16636;48.394;15.468;2023-04-03T00:46:58;6.30;99.90
29725;DHT22;16636;48.394;15.468;2023-04-03T00:49:25;6.30;99.90
29725;DHT22;16636;48.394;15.468;2023-04-03T00:51:51;6.40;99.90
29725;DHT22;16636;48.394;15.468;2023-04-03T00:54:18;6.30;99.90
29725;DHT22;16636;48.394;15.468;2023-04-03T00:56:44;6.40;99.90
29725;DHT22;16636;48.394;15.468;2023-04-03T00:59:12;6.40;99.90
29725;DHT22;16636;48.394;15.468;2023-04-03T01:01:39;6.30;99.90
29725;DHT22;16636;48.394;15.468;2023-04-03T01:04:05;6.40;99.90
29725;DHT22;16636;48.394;15.468;2023-04-03T01:06:33;6.40;99.90
29725;DHT22;16636;48.394;15.468;2023-04-03T01:09:05;6.40;99.90
29725;DHT22;16636;48.394;15.468;2023-04-03T01:11:31;6.40;99.90
29725;DHT22;16636;48.394;15.468;2023-04-03T01:13:57;6.30;99.90
29725;DHT22;16636;48.394;15.468;2023-04-03T01:16:24;6.30;99.90
29725;DHT22;16636;48.394;15.468;2023-04-03T01:18:51;6.30;99.90
29725;DHT22;16636;48.394;15.468;2023-04-03T01:24:38;6.30;99.90
29725;DHT22;16636;48.394;15.468;2023-04-03T01:26:39;6.20;99.90
29725;DHT22;16636;48.394;15.468;2023-04-03T01:29:05;6.20;99.90
29725;DHT22;16636;48.394;15.468;2023-04-03T01:31:32;6.30;99.90
29725;DHT22;16636;48.394;15.468;2023-04-03T01:33:59;6.30;99.90
29725;DHT22;16636;48.394;15.468;2023-04-03T01:36:26;6.30;99.90
29725;DHT22;16636;48.394;15.468;2023-04-03T01:38:53;6.20;99.90
29725;DHT22;16636;48.394;15.468;2023-04-03T01:41:20;6.20;99.90
29725;DHT22;16636;48.394;15.468;2023-04-03T01:43:47;6.20;99.90
29725;DHT22;16636;48.394;15.468;2023-04-03T01:46:13;6.20;99.90
29725;DHT22;16636;48.394;15.468;2023-04-03T01:48:39;6.20;99.90
29725;DHT22;16636;48.394;15.468;2023-04-03T01:51:06;6.20;99.90
29725;DHT22;16636;48.394;15.468;2023-04-03T01:53:32;6.30;99.90
29725;DHT22;16636;48.394;15.468;2023-04-03T01:55:58;6.20;99.90
29725;DHT22;16636;48.394;15.468;2023-04-03T01:58:23;6.20;99.90
29725;DHT22;16636;48.394;15.468;2023-04-03T02:00:52;6.10;99.90
29725;DHT22;16636;48.394;15.468;2023-04-03T02:03:18;6.10;99.90
29725;DHT22;16636;48.394;15.468;2023-04-03T02:05:44;6.20;99.90
29725;DHT22;16636;48.394;15.468;2023-04-03T02:08:10;6.20;99.90
29725;DHT22;16636;48.394;15.468;2023-04-03T02:10:36;6.20;99.90
29725;DHT22;16636;48.394;15.468;2023-04-03T02:13:02;6.10;99.90
29725;DHT22;16636;48.394;15.468;2023-04-03T02:15:28;6.10;99.90
29725;DHT22;16636;48.394;15.468;2023-04-03T02:17:54;6.10;99.90
29725;DHT22;16636;48.394;15.468;2023-04-03T02:20:20;6.10;99.90
29725;DHT22;16636;48.394;15.468;2023-04-03T02:22:46;6.10;99.90
29725;DHT22;16636;48.394;15.468;2023-04-03T02:25:12;6.10;99.90
29725;DHT22;16636;48.394;15.468;2023-04-03T02:27:38;6.10;99.90
29725;DHT22;16636;48.394;15.468;2023-04-03T02:30:04;6.10;99.90
29725;DHT22;16636;48.394;15.468;2023-04-03T02:32:31;6.20;99.90
29725;DHT22;16636;48.394;15.468;2023-04-03T02:34:57;6.10;99.90
29725;DHT22;16636;48.394;15.468;2023-04-03T02:37:22;6.10;99.90
29725;DHT22;16636;48.394;15.468;2023-04-03T02:39:50;6.10;99.90
29725;DHT22;16636;48.394;15.468;2023-04-03T02:42:16;6.10;99.90
29725;DHT22;16636;48.394;15.468;2023-04-03T02:44:42;6.10;99.90
29725;DHT22;16636;48.394;15.468;2023-04-03T02:47:09;6.10;99.90
29725;DHT22;16636;48.394;15.468;2023-04-03T02:49:35;6.10;99.90
29725;DHT22;16636;48.394;15.468;2023-04-03T02:52:00;6.10;99.90
29725;DHT22;16636;48.394;15.468;2023-04-03T02:54:26;6.00;99.90
29725;DHT22;16636;48.394;15.468;2023-04-03T02:56:59;6.00;99.90
29725;DHT22;16636;48.394;15.468;2023-04-03T02:59:25;6.10;99.90
29725;DHT22;16636;48.394;15.468;2023-04-03T03:01:51;6.10;99.90
29725;DHT22;16636;48.394;15.468;2023-04-03T03:04:18;6.10;99.90
29725;DHT22;16636;48.394;15.468;2023-04-03T03:06:43;6.10;99.90
29725;DHT22;16636;48.394;15.468;2023-04-03T03:09:09;6.00;99.90
29725;DHT22;16636;48.394;15.468;2023-04-03T03:11:35;6.00;99.90
29725;DHT22;16636;48.394;15.468;2023-04-03T03:14:02;6.00;99.90
29725;DHT22;16636;48.394;15.468;2023-04-03T03:16:28;6.00;99.90
29725;DHT22;16636;48.394;15.468;2023-04-03T03:18:56;6.00;99.90
29725;DHT22;16636;48.394;15.468;2023-04-03T03:21:22;6.00;99.90
29725;DHT22;16636;48.394;15.468;2023-04-03T03:23:48;6.00;99.90
29725;DHT22;16636;48.394;15.468;2023-04-03T03:26:13;6.00;99.90
29725;DHT22;16636;48.394;15.468;2023-04-03T03:28:40;6.00;99.90
29725;DHT22;16636;48.394;15.468;2023-04-03T03:31:07;6.00;99.90
29725;DHT22;16636;48.394;15.468;2023-04-03T03:33:35;6.00;99.90
29725;DHT22;16636;48.394;15.468;2023-04-03T03:36:01;5.90;99.90
29725;DHT22;16636;48.394;15.468;2023-04-03T03:38:27;5.90;99.90
29725;DHT22;16636;48.394;15.468;2023-04-03T03:40:53;5.90;99.90
29725;DHT22;16636;48.394;15.468;2023-04-03T03:43:21;6.00;99.90
29725;DHT22;16636;48.394;15.468;2023-04-03T03:45:51;5.90;99.90
29725;DHT22;16636;48.394;15.468;2023-04-03T03:48:18;5.90;99.90
29725;DHT22;16636;48.394;15.468;2023-04-03T03:50:44;5.90;99.90
29725;DHT22;16636;48.394;15.468;2023-04-03T03:53:11;5.90;99.90
29725;DHT22;16636;48.394;15.468;2023-04-03T03:55:37;5.90;99.90
29725;DHT22;16636;48.394;15.468;2023-04-03T03:58:03;5.90;99.90
29725;DHT22;16636;48.394;15.468;2023-04-03T04:00:30;5.90;99.90
29725;DHT22;16636;48.394;15.468;2023-04-03T04:02:56;5.90;99.90
29725;DHT22;16636;48.394;15.468;2023-04-03T04:05:24;5.90;99.90
29725;DHT22;16636;48.394;15.468;2023-04-03T04:07:52;5.90;99.90
29725;DHT22;16636;48.394;15.468;2023-04-03T04:10:17;5.90;99.90
29725;DHT22;16636;48.394;15.468;2023-04-03T04:12:44;6.00;99.90
29725;DHT22;16636;48.394;15.468;2023-04-03T04:15:11;6.00;99.90
29725;DHT22;16636;48.394;15.468;2023-04-03T04:17:37;5.90;99.90
29725;DHT22;16636;48.394;15.468;2023-04-03T04:20:06;5.90;99.90
29725;DHT22;16636;48.394;15.468;2023-04-03T04:22:32;5.90;99.90
29725;DHT22;16636;48.394;15.468;2023-04-03T04:24:58;5.90;99.90
29725;DHT22;16636;48.394;15.468;2023-04-03T04:27:25;5.90;99.90
29725;DHT22;16636;48.394;15.468;2023-04-03T04:29:51;5.90;99.90
29725;DHT22;16636;48.394;15.468;2023-04-03T04:32:17;5.90;99.90
29725;DHT22;16636;48.394;15.468;2023-04-03T04:34:43;5.80;99.90
29725;DHT22;16636;48.394;15.468;2023-04-03T04:37:10;5.80;99.90
29725;DHT22;16636;48.394;15.468;2023-04-03T04:39:36;5.90;99.90
29725;DHT22;16636;48.394;15.468;2023-04-03T04:42:03;5.90;99.90
29725;DHT22;16636;48.394;15.468;2023-04-03T04:44:31;5.80;99.90
29725;DHT22;16636;48.394;15.468;2023-04-03T04:46:57;5.80;99.90
29725;DHT22;16636;48.394;15.468;2023-04-03T04:49:23;5.80;99.90
29725;DHT22;16636;48.394;15.468;2023-04-03T04:51:49;5.80;99.90
29725;DHT22;16636;48.394;15.468;2023-04-03T04:54:17;5.70;99.90
29725;DHT22;16636;48.394;15.468;2023-04-03T04:56:44;5.70;99.90
29725;DHT22;16636;48.394;15.468;2023-04-03T04:59:10;5.70;99.90
29725;DHT22;16636;48.394;15.468;2023-04-03T05:01:36;5.70;99.90
29725;DHT22;16636;48.394;15.468;2023-04-03T05:04:14;5.70;99.90
29725;DHT22;16636;48.394;15.468;2023-04-03T05:06:41;5.80;99.90
29725;DHT22;16636;48.394;15.468;2023-04-03T05:09:13;5.80;99.90
29725;DHT22;16636;48.394;15.468;2023-04-03T05:11:41;5.80;99.90
29725;DHT22;16636;48.394;15.468;2023-04-03T05:14:07;5.80;99.90
29725;DHT22;16636;48.394;15.468;2023-04-03T05:16:34;5.80;99.90
29725;DHT22;16636;48.394;15.468;2023-04-03T05:19:00;5.70;99.90
29725;DHT22;16636;48.394;15.468;2023-04-03T05:21:27;5.80;99.90
29725;DHT22;16636;48.394;15.468;2023-04-03T05:24:01;5.70;99.90
29725;DHT22;16636;48.394;15.468;2023-04-03T05:26:31;5.80;99.90
29725;DHT22;16636;48.394;15.468;2023-04-03T05:28:58;5.70;99.90
29725;DHT22;16636;48.394;15.468;2023-04-03T05:31:24;5.70;99.90
29725;DHT22;16636;48.394;15.468;2023-04-03T05:33:51;5.70;99.90
29725;DHT22;16636;48.394;15.468;2023-04-03T05:36:17;5.70;99.90
29725;DHT22;16636;48.394;15.468;2023-04-03T05:38:46;5.70;99.90
29725;DHT22;16636;48.394;15.468;2023-04-03T05:41:13;5.80;99.90
29725;DHT22;16636;48.394;15.468;2023-04-03T05:43:40;5.70;99.90
29725;DHT22;16636;48.394;15.468;2023-04-03T05:46:12;5.70;99.90
29725;DHT22;16636;48.394;15.468;2023-04-03T05:48:39;5.70;99.90
29725;DHT22;16636;48.394;15.468;2023-04-03T05:51:05;5.70;99.90
29725;DHT22;16636;48.394;15.468;2023-04-03T05:53:31;5.80;99.90
29725;DHT22;16636;48.394;15.468;2023-04-03T05:56:02;5.80;99.90
29725;DHT22;16636;48.394;15.468;2023-04-03T05:58:31;5.80;99.90
29725;DHT22;16636;48.394;15.468;2023-04-03T06:00:57;5.80;99.90
29725;DHT22;16636;48.394;15.468;2023-04-03T06:03:23;5.80;99.90
29725;DHT22;16636;48.394;15.468;2023-04-03T06:05:49;5.80;99.90
29725;DHT22;16636;48.394;15.468;2023-04-03T06:08:14;5.70;99.90
29725;DHT22;16636;48.394;15.468;2023-04-03T06:10:40;5.70;99.90
29725;DHT22;16636;48.394;15.468;2023-04-03T06:13:06;5.80;99.90
29725;DHT22;16636;48.394;15.468;2023-04-03T06:15:32;5.80;99.90
29725;DHT22;16636;48.394;15.468;2023-04-03T06:17:59;5.80;99.90
29725;DHT22;16636;48.394;15.468;2023-04-03T06:20:25;5.80;99.90
29725;DHT22;16636;48.394;15.468;2023-04-03T06:22:52;5.80;99.90
29725;DHT22;16636;48.394;15.468;2023-04-03T06:25:18;5.80;99.90
29725;DHT22;16636;48.394;15.468;2023-04-03T06:27:45;5.80;99.90
29725;DHT22;16636;48.394;15.468;2023-04-03T06:30:11;5.80;99.90
29725;DHT22;16636;48.394;15.468;2023-04-03T06:32:37;5.90;99.90
29725;DHT22;16636;48.394;15.468;2023-04-03T06:35:04;5.90;99.90
29725;DHT22;16636;48.394;15.468;2023-04-03T06:37:30;5.90;99.90
29725;DHT22;16636;48.394;15.468;2023-04-03T06:39:56;6.00;99.90
29725;DHT22;16636;48.394;15.468;2023-04-03T06:42:22;6.00;99.90
29725;DHT22;16636;48.394;15.468;2023-04-03T06:44:57;6.00;99.90
29725;DHT22;16636;48.394;15.468;2023-04-03T06:47:23;6.00;99.90
29725;DHT22;16636;48.394;15.468;2023-04-03T06:49:49;6.00;99.90
29725;DHT22;16636;48.394;15.468;2023-04-03T06:52:15;6.00;99.90
29725;DHT22;16636;48.394;15.468;2023-04-03T06:54:42;6.00;99.90
29725;DHT22;16636;48.394;15.468;2023-04-03T06:57:07;6.00;99.90
29725;DHT22;16636;48.394;15.468;2023-04-03T06:59:34;6.00;99.90
29725;DHT22;16636;48.394;15.468;2023-04-03T07:02:00;6.10;99.90
29725;DHT22;16636;48.394;15.468;2023-04-03T07:04:26;6.10;99.90
29725;DHT22;16636;48.394;15.468;2023-04-03T07:06:51;6.10;99.90
29725;DHT22;16636;48.394;15.468;2023-04-03T07:09:18;6.10;99.90
29725;DHT22;16636;48.394;15.468;2023-04-03T07:11:44;6.10;99.90
29725;DHT22;16636;48.394;15.468;2023-04-03T07:14:09;6.10;99.90
29725;DHT22;16636;48.394;15.468;2023-04-03T07:16:35;6.10;99.90
29725;DHT22;16636;48.394;15.468;2023-04-03T07:19:01;6.20;99.90
29725;DHT22;16636;48.394;15.468;2023-04-03T07:21:28;6.20;99.90
29725;DHT22;16636;48.394;15.468;2023-04-03T07:23:54;6.20;99.90
29725;DHT22;16636;48.394;15.468;2023-04-03T07:26:20;6.20;99.90
29725;DHT22;16636;48.394;15.468;2023-04-03T07:28:48;6.20;99.90
29725;DHT22;16636;48.394;15.468;2023-04-03T07:31:14;6.30;99.90
29725;DHT22;16636;48.394;15.468;2023-04-03T07:33:40;6.30;99.90
29725;DHT22;16636;48.394;15.468;2023-04-03T07:36:07;6.30;99.90
29725;DHT22;16636;48.394;15.468;2023-04-03T07:38:33;6.30;99.90
29725;DHT22;16636;48.394;15.468;2023-04-03T07:40:59;6.30;99.90
29725;DHT22;16636;48.394;15.468;2023-04-03T07:43:25;6.30;99.90
29725;DHT22;16636;48.394;15.468;2023-04-03T07:45:51;6.40;99.90
29725;DHT22;16636;48.394;15.468;2023-04-03T07:48:18;6.40;99.90
29725;DHT22;16636;48.394;15.468;2023-04-03T07:50:44;6.40;99.90
29725;DHT22;16636;48.394;15.468;2023-04-03T07:53:10;6.50;99.90
29725;DHT22;16636;48.394;15.468;2023-04-03T07:55:36;6.50;99.90
29725;DHT22;16636;48.394;15.468;2023-04-03T07:58:12;6.50;99.90
29725;DHT22;16636;48.394;15.468;2023-04-03T08:00:38;6.50;99.90
29725;DHT22;16636;48.394;15.468;2023-04-03T08:03:05;6.60;99.90
29725;DHT22;16636;48.394;15.468;2023-04-03T08:05:31;6.50;99.90
29725;DHT22;16636;48.394;15.468;2023-04-03T08:07:57;6.60;99.90
29725;DHT22;16636;48.394;15.468;2023-04-03T08:10:23;6.60;99.90
29725;DHT22;16636;48.394;15.468;2023-04-03T08:12:49;6.60;99.90
29725;DHT22;16636;48.394;15.468;2023-04-03T08:15:15;6.70;99.90
29725;DHT22;16636;48.394;15.468;2023-04-03T08:17:41;6.70;99.90
29725;DHT22;16636;48.394;15.468;2023-04-03T08:20:07;6.80;99.90
29725;DHT22;16636;48.394;15.468;2023-04-03T08:22:34;6.80;99.90
29725;DHT22;16636;48.394;15.468;2023-04-03T08:25:00;6.80;99.90
29725;DHT22;16636;48.394;15.468;2023-04-03T08:27:27;7.00;99.90
29725;DHT22;16636;48.394;15.468;2023-04-03T08:29:54;7.00;99.90
29725;DHT22;16636;48.394;15.468;2023-04-03T08:32:21;7.00;99.90
29725;DHT22;16636;48.394;15.468;2023-04-03T08:34:46;7.00;99.90
29725;DHT22;16636;48.394;15.468;2023-04-03T08:37:12;7.00;99.90
29725;DHT22;16636;48.394;15.468;2023-04-03T08:39:38;7.00;99.90
29725;DHT22;16636;48.394;15.468;2023-04-03T08:42:27;7.10;99.90
29725;DHT22;16636;48.394;15.468;2023-04-03T08:45:02;7.20;99.90
29725;DHT22;16636;48.394;15.468;2023-04-03T08:47:38;7.30;99.90
29725;DHT22;16636;48.394;15.468;2023-04-03T08:50:07;7.30;99.90
29725;DHT22;16636;48.394;15.468;2023-04-03T08:52:56;7.50;99.90
29725;DHT22;16636;48.394;15.468;2023-04-03T08:56:06;7.60;99.90
29725;DHT22;16636;48.394;15.468;2023-04-03T08:58:12;7.80;99.90
29725;DHT22;16636;48.394;15.468;2023-04-03T09:00:43;8.10;99.90
29725;DHT22;16636;48.394;15.468;2023-04-03T09:03:20;8.30;99.90
29725;DHT22;16636;48.394;15.468;2023-04-03T09:05:48;8.40;99.90
29725;DHT22;16636;48.394;15.468;2023-04-03T09:10:49;8.70;99.90
29725;DHT22;16636;48.394;15.468;2023-04-03T09:13:26;8.70;99.90
29725;DHT22;16636;48.394;15.468;2023-04-03T09:15:56;8.60;99.90
29725;DHT22;16636;48.394;15.468;2023-04-03T09:18:32;8.50;99.90
29725;DHT22;16636;48.394;15.468;2023-04-03T09:21:04;8.50;99.90
29725;DHT22;16636;48.394;15.468;2023-04-03T09:23:43;8.40;99.90
29725;DHT22;16636;48.394;15.468;2023-04-03T09:26:13;8.60;99.90
29725;DHT22;16636;48.394;15.468;2023-04-03T09:28:40;8.80;99.90
29725;DHT22;16636;48.394;15.468;2023-04-03T09:31:21;9.00;99.90
29725;DHT22;16636;48.394;15.468;2023-04-03T09:33:56;9.20;99.90
29725;DHT22;16636;48.394;15.468;2023-04-03T09:39:26;9.50;99.90
29725;DHT22;16636;48.394;15.468;2023-04-03T09:42:00;9.70;99.90
29725;DHT22;16636;48.394;15.468;2023-04-03T09:44:27;9.60;99.90
29725;DHT22;16636;48.394;15.468;2023-04-03T09:46:54;9.30;99.90
29725;DHT22;16636;48.394;15.468;2023-04-03T09:49:19;9.60;99.90
29725;DHT22;16636;48.394;15.468;2023-04-03T09:51:45;9.90;99.90
29725;DHT22;16636;48.394;15.468;2023-04-03T09:56:57;9.60;99.90
29725;DHT22;16636;48.394;15.468;2023-04-03T09:59:26;9.20;99.90
29725;DHT22;16636;48.394;15.468;2023-04-03T10:01:59;9.20;99.90
29725;DHT22;16636;48.394;15.468;2023-04-03T10:04:26;9.60;99.90
29725;DHT22;16636;48.394;15.468;2023-04-03T10:07:01;9.80;99.90
29725;DHT22;16636;48.394;15.468;2023-04-03T10:09:28;9.50;99.90
29725;DHT22;16636;48.394;15.468;2023-04-03T10:14:27;9.20;99.90
29725;DHT22;16636;48.394;15.468;2023-04-03T10:16:56;9.00;99.90
29725;DHT22;16636;48.394;15.468;2023-04-03T10:21:57;8.80;99.90
29725;DHT22;16636;48.394;15.468;2023-04-03T10:24:25;8.70;99.90
29725;DHT22;16636;48.394;15.468;2023-04-03T10:27:05;8.70;99.90
29725;DHT22;16636;48.394;15.468;2023-04-03T10:34:44;8.60;99.90
29725;DHT22;16636;48.394;15.468;2023-04-03T10:39:44;8.60;99.90
29725;DHT22;16636;48.394;15.468;2023-04-03T10:45:29;9.00;99.50
29725;DHT22;16636;48.394;15.468;2023-04-03T10:53:28;8.90;98.00
29725;DHT22;16636;48.394;15.468;2023-04-03T10:58:34;9.10;96.70
29725;DHT22;16636;48.394;15.468;2023-04-03T11:01:02;9.10;95.00
29725;DHT22;16636;48.394;15.468;2023-04-03T11:03:38;9.00;94.40
29725;DHT22;16636;48.394;15.468;2023-04-03T11:06:07;9.00;93.70
29725;DHT22;16636;48.394;15.468;2023-04-03T11:08:36;9.00;94.70
29725;DHT22;16636;48.394;15.468;2023-04-03T11:11:19;9.00;95.60
29725;DHT22;16636;48.394;15.468;2023-04-03T11:13:51;8.90;94.40
29725;DHT22;16636;48.394;15.468;2023-04-03T11:16:24;8.80;94.40
29725;DHT22;16636;48.394;15.468;2023-04-03T11:18:56;8.80;95.20
29725;DHT22;16636;48.394;15.468;2023-04-03T11:21:43;8.70;94.80
29725;DHT22;16636;48.394;15.468;2023-04-03T11:24:14;8.60;94.80
29725;DHT22;16636;48.394;15.468;2023-04-03T11:26:41;8.60;93.90
29725;DHT22;16636;48.394;15.468;2023-04-03T11:29:09;8.60;94.60
29725;DHT22;16636;48.394;15.468;2023-04-03T11:34:48;9.00;95.60
29725;DHT22;16636;48.394;15.468;2023-04-03T11:40:05;9.40;94.30
29725;DHT22;16636;48.394;15.468;2023-04-03T11:42:39;9.40;93.30
29725;DHT22;16636;48.394;15.468;2023-04-03T11:47:56;9.10;93.00
29725;DHT22;16636;48.394;15.468;2023-04-03T12:05:49;9.50;88.30
29725;DHT22;16636;48.394;15.468;2023-04-03T12:08:22;9.20;85.60
29725;DHT22;16636;48.394;15.468;2023-04-03T12:13:34;9.00;86.30
29725;DHT22;16636;48.394;15.468;2023-04-03T12:16:01;8.90;86.50
29725;DHT22;16636;48.394;15.468;2023-04-03T12:18:39;8.90;85.20
29725;DHT22;16636;48.394;15.468;2023-04-03T12:21:06;8.90;91.30
29725;DHT22;16636;48.394;15.468;2023-04-03T12:23:33;8.90;89.80
29725;DHT22;16636;48.394;15.468;2023-04-03T12:26:01;8.80;88.00
29725;DHT22;16636;48.394;15.468;2023-04-03T12:28:29;8.80;85.50
29725;DHT22;16636;48.394;15.468;2023-04-03T12:30:56;8.60;89.40
29725;DHT22;16636;48.394;15.468;2023-04-03T12:33:26;8.60;87.70
29725;DHT22;16636;48.394;15.468;2023-04-03T12:43:43;8.70;90.50
29725;DHT22;16636;48.394;15.468;2023-04-03T12:46:21;9.10;92.90
29725;DHT22;16636;48.394;15.468;2023-04-03T12:48:48;9.10;90.70
29725;DHT22;16636;48.394;15.468;2023-04-03T12:51:18;9.00;85.60
29725;DHT22;16636;48.394;15.468;2023-04-03T12:53:45;8.80;89.90
29725;DHT22;16636;48.394;15.468;2023-04-03T12:56:22;8.70;88.90
29725;DHT22;16636;48.394;15.468;2023-04-03T12:58:49;8.70;91.70
29725;DHT22;16636;48.394;15.468;2023-04-03T13:01:16;8.80;91.70
29725;DHT22;16636;48.394;15.468;2023-04-03T13:03:44;8.80;90.80
29725;DHT22;16636;48.394;15.468;2023-04-03T13:06:14;9.50;87.90
29725;DHT22;16636;48.394;15.468;2023-04-03T13:08:52;9.50;86.40
29725;DHT22;16636;48.394;15.468;2023-04-03T13:11:19;9.80;90.50
29725;DHT22;16636;48.394;15.468;2023-04-03T13:13:56;9.60;87.50
29725;DHT22;16636;48.394;15.468;2023-04-03T13:16:22;9.40;87.10
29725;DHT22;16636;48.394;15.468;2023-04-03T13:18:52;9.30;84.60
29725;DHT22;16636;48.394;15.468;2023-04-03T13:21:19;9.10;84.90
29725;DHT22;16636;48.394;15.468;2023-04-03T13:23:48;8.90;82.50
29725;DHT22;16636;48.394;15.468;2023-04-03T13:26:18;8.80;84.50
29725;DHT22;16636;48.394;15.468;2023-04-03T13:28:45;8.70;84.90
29725;DHT22;16636;48.394;15.468;2023-04-03T13:33:41;8.50;83.80
29725;DHT22;16636;48.394;15.468;2023-04-03T13:36:19;8.80;87.50
29725;DHT22;16636;48.394;15.468;2023-04-03T13:38:45;9.50;90.10
29725;DHT22;16636;48.394;15.468;2023-04-03T13:41:23;9.90;87.60
29725;DHT22;16636;48.394;15.468;2023-04-03T13:43:49;9.70;80.60
29725;DHT22;16636;48.394;15.468;2023-04-03T13:48:43;9.30;82.40
29725;DHT22;16636;48.394;15.468;2023-04-03T13:53:46;9.00;82.30
29725;DHT22;16636;48.394;15.468;2023-04-03T13:56:26;8.90;82.40
29725;DHT22;16636;48.394;15.468;2023-04-03T13:58:53;8.80;82.80
29725;DHT22;16636;48.394;15.468;2023-04-03T14:01:20;8.80;81.90
29725;DHT22;16636;48.394;15.468;2023-04-03T14:03:52;8.80;83.30
29725;DHT22;16636;48.394;15.468;2023-04-03T14:06:18;8.90;83.30
29725;DHT22;16636;48.394;15.468;2023-04-03T14:08:44;8.90;83.80
29725;DHT22;16636;48.394;15.468;2023-04-03T14:11:12;8.80;81.80
29725;DHT22;16636;48.394;15.468;2023-04-03T14:13:39;8.60;80.80
29725;DHT22;16636;48.394;15.468;2023-04-03T14:16:05;8.50;81.20
29725;DHT22;16636;48.394;15.468;2023-04-03T14:18:31;8.40;82.10
29725;DHT22;16636;48.394;15.468;2023-04-03T14:20:57;8.40;83.00
29725;DHT22;16636;48.394;15.468;2023-04-03T14:23:23;8.50;88.60
29725;DHT22;16636;48.394;15.468;2023-04-03T14:25:49;8.50;86.80
29725;DHT22;16636;48.394;15.468;2023-04-03T14:28:17;8.50;86.00
29725;DHT22;16636;48.394;15.468;2023-04-03T14:30:44;8.40;85.70
29725;DHT22;16636;48.394;15.468;2023-04-03T14:33:12;8.30;83.20
29725;DHT22;16636;48.394;15.468;2023-04-03T14:35:38;8.30;84.20
29725;DHT22;16636;48.394;15.468;2023-04-03T14:38:05;8.10;81.40
29725;DHT22;16636;48.394;15.468;2023-04-03T14:40:35;8.20;84.00
29725;DHT22;16636;48.394;15.468;2023-04-03T14:43:01;8.10;82.80
29725;DHT22;16636;48.394;15.468;2023-04-03T14:45:27;8.00;82.90
29725;DHT22;16636;48.394;15.468;2023-04-03T14:47:54;8.00;82.70
29725;DHT22;16636;48.394;15.468;2023-04-03T14:50:24;8.00;85.10
29725;DHT22;16636;48.394;15.468;2023-04-03T14:52:51;8.00;85.40
29725;DHT22;16636;48.394;15.468;2023-04-03T14:55:20;8.00;82.60
29725;DHT22;16636;48.394;15.468;2023-04-03T14:57:47;8.00;86.60
29725;DHT22;16636;48.394;15.468;2023-04-03T15:00:15;7.90;83.60
29725;DHT22;16636;48.394;15.468;2023-04-03T15:02:41;7.90;85.60
29725;DHT22;16636;48.394;15.468;2023-04-03T15:05:08;7.90;86.90
29725;DHT22;16636;48.394;15.468;2023-04-03T15:07:35;7.90;88.00
29725;DHT22;16636;48.394;15.468;2023-04-03T15:10:05;7.90;86.60
29725;DHT22;16636;48.394;15.468;2023-04-03T15:12:32;7.80;87.20
29725;DHT22;16636;48.394;15.468;2023-04-03T15:14:58;7.80;86.70
29725;DHT22;16636;48.394;15.468;2023-04-03T15:17:24;7.80;87.40
29725;DHT22;16636;48.394;15.468;2023-04-03T15:19:49;7.80;87.20
29725;DHT22;16636;48.394;15.468;2023-04-03T15:22:16;7.80;87.30
29725;DHT22;16636;48.394;15.468;2023-04-03T15:24:42;7.80;86.20
29725;DHT22;16636;48.394;15.468;2023-04-03T15:27:09;7.70;87.60
29725;DHT22;16636;48.394;15.468;2023-04-03T15:29:35;7.70;86.80
29725;DHT22;16636;48.394;15.468;2023-04-03T15:32:01;7.70;83.80
29725;DHT22;16636;48.394;15.468;2023-04-03T15:34:27;7.60;86.40
29725;DHT22;16636;48.394;15.468;2023-04-03T15:36:53;7.50;85.50
29725;DHT22;16636;48.394;15.468;2023-04-03T15:39:19;7.50;87.00
29725;DHT22;16636;48.394;15.468;2023-04-03T15:41:46;7.50;87.20
29725;DHT22;16636;48.394;15.468;2023-04-03T15:44:12;7.40;85.50
29725;DHT22;16636;48.394;15.468;2023-04-03T15:46:39;7.30;85.60
29725;DHT22;16636;48.394;15.468;2023-04-03T15:49:05;7.30;86.30
29725;DHT22;16636;48.394;15.468;2023-04-03T15:51:31;7.30;86.10
29725;DHT22;16636;48.394;15.468;2023-04-03T15:53:57;7.30;87.60
29725;DHT22;16636;48.394;15.468;2023-04-03T15:56:23;7.30;87.30
29725;DHT22;16636;48.394;15.468;2023-04-03T15:58:48;7.30;86.60
29725;DHT22;16636;48.394;15.468;2023-04-03T16:01:14;7.40;88.30
29725;DHT22;16636;48.394;15.468;2023-04-03T16:03:41;7.50;89.60
29725;DHT22;16636;48.394;15.468;2023-04-03T16:06:11;7.50;88.90
29725;DHT22;16636;48.394;15.468;2023-04-03T16:08:38;7.50;90.00
29725;DHT22;16636;48.394;15.468;2023-04-03T16:11:03;7.50;90.70
29725;DHT22;16636;48.394;15.468;2023-04-03T16:13:29;7.50;88.40
29725;DHT22;16636;48.394;15.468;2023-04-03T16:15:56;7.50;87.80
29725;DHT22;16636;48.394;15.468;2023-04-03T16:18:21;7.40;84.70
29725;DHT22;16636;48.394;15.468;2023-04-03T16:20:47;7.40;85.70
29725;DHT22;16636;48.394;15.468;2023-04-03T16:23:14;7.30;85.90
29725;DHT22;16636;48.394;15.468;2023-04-03T16:25:40;7.30;87.20
29725;DHT22;16636;48.394;15.468;2023-04-03T16:28:14;7.30;87.30
29725;DHT22;16636;48.394;15.468;2023-04-03T16:30:40;7.20;85.80
29725;DHT22;16636;48.394;15.468;2023-04-03T16:33:06;7.20;86.80
29725;DHT22;16636;48.394;15.468;2023-04-03T16:35:34;7.20;88.40
29725;DHT22;16636;48.394;15.468;2023-04-03T16:38:00;7.20;88.30
29725;DHT22;16636;48.394;15.468;2023-04-03T16:40:25;7.10;85.70
29725;DHT22;16636;48.394;15.468;2023-04-03T16:42:51;7.10;86.40
29725;DHT22;16636;48.394;15.468;2023-04-03T16:45:17;7.00;87.00
29725;DHT22;16636;48.394;15.468;2023-04-03T16:47:43;7.10;87.10
29725;DHT22;16636;48.394;15.468;2023-04-03T16:50:09;7.00;87.10
29725;DHT22;16636;48.394;15.468;2023-04-03T16:52:35;7.00;85.20